Baltimore/Washington International Thurgood Marshal Airport
KBWI : now visible

Airfield :











YOU CAN JOIN US ON...

 
LOGIN :

Register | Disclaimer

   EN    FR    IT 

 









Legend :    VFR   Marginal VFR   IFR   Intensive IFR   Very Intensive IFR
Visi :
Ceiling :
>= 8 km
>= 3000ft
5 to 8 km
1000 to 3000 ft
1500m to 5 km
500 to 1000 ft
800 to 1500m
200 to 500 ft
< 800m
< 200 ft
Symbols :   Thunderstorms  Fog  Heavy snow  Heavy precipitations  Wind > 20 kt






- Airport Elevation : 146 ft
- IATA code : BWI


KBWI - Baltimore/Washington International Thurgood Marshal

CURRENT METAR :
  • 122054Z 12006KT 10SM BKN250 03/M09 A3066 RMK AO2 SLP383 T00281089 56014

EXPIRED METARs :
  • 121954Z 09003KT 10SM BKN250 03/M09 A3067 RMK AO2 SLP388 T00331089
  • 121854Z 05005KT 10SM BKN250 03/M09 A3068 RMK AO2 SLP389 T00331089

TAF KBWI
Valid from the 12 at 21:00 until the 14 at 00:00 UTC


122053Z 1221/1324 VRB03KT P6SM SCT250
FM130500 00000KT P6SM BKN060
FM130600 00000KT P6SM BKN030
FM131700 05004KT 6SM -RA OVC015
FM131900 05004KT 6SM -RA OVC008



MET'MAP, your aeronautical weather chart ! - Copyright ORBIFLY December 2007 - Disclaimer

ORBIFLY MET'MAP TEAM :

Programming & Development : Alexandra Zaïnal
Concept & original design : Baudouin d'Aumeries
Assistance for programming : Marc-Olivier Méhu
Technical & hardware support : Manuel Goepfert

Contact : metmap@orbifly.com




SOURCES & CREDITS :

   NOAA       Earth
Advisory